Startpagina
METAR-TAF:

METAR-TAF

Vliegvelden :

Flughafen Frankfurt am Main

Frankfurt am Main, Duitsland

breedte: 50-03N, lengte: 008-36E, hoogte: 111 m

Actueel weer

Dit bericht is 15 minuten geleden gemaakt, om 04:50 UTC
Wind 1 kt uit variabele richting
Temperatuur 18°C
Vochtigheid 88%
Druk 1018 hPa
Zicht 10 km of meer
geen wolken onder 1500 m en geen cumulonimbus

METAR: EDDF 260450Z VRB01KT CAVOK 18/16 Q1018 NOSIG

Tijdstip: 07:05 (05:05 UTC)

Verwachting

Dit bericht is 6 uur en het 5 minuten geleden gemaakt, om 23:00 UTC
Verwachting geldig van 26 om 00 UTC tot 27 om 06 UTC
Wind 4 kt uit het noordoosten
Zicht 10 km of meer
geen wolken onder 1500 m en geen cumulonimbus
Kans 30% :
Tijdelijke
van 26 om 13 UTC tot 26 om 18 UTC
Gebroken wolken op 4000 ft, Cumulonimbus.
onweer, regen

TAF: EDDF 252300Z 2600/2706 05004KT CAVOK PROB30 TEMPO 2613/2618 TSRA BKN040CB

Waarnemingen en weersverwachtingen van meer dan 4000 vliegvelden (METAR en TAF).

De beschikbare stations zijn de gele en rode punten op de kaart.

Ga met uw muis naar het station om de naam te zien.

Klik dan om waarnemingen en weersverwachtingen te zien.

kaart wijzigen: klik op de groene knoppen met een zwart kruis om in te zoomen, op de groene knop met een streepje om uit te zoomen of op de groene pijlen voor aangrenzende kaarten.


METAR-TAF: